sensor_id;sensor_type;location;lat;lon;timestamp;P1;durP1;ratioP1;P2;durP2;ratioP2
5776;SDS011;2914;42.668;23.346;2022-07-23T00:02:11;17.10;;;8.27;;
5776;SDS011;2914;42.668;23.346;2022-07-23T00:04:40;7.90;;;7.30;;
5776;SDS011;2914;42.668;23.346;2022-07-23T00:07:17;10.33;;;8.03;;
5776;SDS011;2914;42.668;23.346;2022-07-23T00:09:46;9.90;;;8.20;;
5776;SDS011;2914;42.668;23.346;2022-07-23T00:12:16;15.10;;;7.40;;
5776;SDS011;2914;42.668;23.346;2022-07-23T00:14:45;8.37;;;7.60;;
5776;SDS011;2914;42.668;23.346;2022-07-23T00:17:14;11.07;;;8.20;;
5776;SDS011;2914;42.668;23.346;2022-07-23T00:22:12;15.57;;;8.23;;
5776;SDS011;2914;42.668;23.346;2022-07-23T00:27:23;13.87;;;8.30;;
5776;SDS011;2914;42.668;23.346;2022-07-23T00:29:52;17.23;;;9.20;;
5776;SDS011;2914;42.668;23.346;2022-07-23T00:32:45;10.60;;;9.07;;
5776;SDS011;2914;42.668;23.346;2022-07-23T00:35:15;11.27;;;8.50;;
5776;SDS011;2914;42.668;23.346;2022-07-23T00:37:53;16.67;;;9.00;;
5776;SDS011;2914;42.668;23.346;2022-07-23T00:40:23;11.07;;;8.10;;
5776;SDS011;2914;42.668;23.346;2022-07-23T00:42:52;13.90;;;7.97;;
5776;SDS011;2914;42.668;23.346;2022-07-23T00:45:22;16.90;;;8.60;;
5776;SDS011;2914;42.668;23.346;2022-07-23T00:47:51;13.30;;;8.10;;
5776;SDS011;2914;42.668;23.346;2022-07-23T00:50:20;9.80;;;8.30;;
5776;SDS011;2914;42.668;23.346;2022-07-23T00:52:49;12.03;;;8.53;;
5776;SDS011;2914;42.668;23.346;2022-07-23T00:55:19;11.77;;;7.20;;
5776;SDS011;2914;42.668;23.346;2022-07-23T00:57:49;15.03;;;7.70;;
5776;SDS011;2914;42.668;23.346;2022-07-23T01:00:20;13.33;;;7.70;;
5776;SDS011;2914;42.668;23.346;2022-07-23T01:02:49;8.23;;;7.33;;
5776;SDS011;2914;42.668;23.346;2022-07-23T01:05:18;8.10;;;7.30;;
5776;SDS011;2914;42.668;23.346;2022-07-23T01:07:49;12.83;;;8.03;;
5776;SDS011;2914;42.668;23.346;2022-07-23T01:10:18;9.37;;;7.63;;
5776;SDS011;2914;42.668;23.346;2022-07-23T01:13:01;11.93;;;7.90;;
5776;SDS011;2914;42.668;23.346;2022-07-23T01:15:31;9.93;;;7.70;;
5776;SDS011;2914;42.668;23.346;2022-07-23T01:18:02;8.70;;;7.80;;
5776;SDS011;2914;42.668;23.346;2022-07-23T01:20:33;11.00;;;8.00;;
5776;SDS011;2914;42.668;23.346;2022-07-23T01:23:03;17.30;;;8.13;;
5776;SDS011;2914;42.668;23.346;2022-07-23T01:25:32;10.67;;;7.80;;
5776;SDS011;2914;42.668;23.346;2022-07-23T01:28:01;9.07;;;7.90;;
5776;SDS011;2914;42.668;23.346;2022-07-23T01:30:31;8.33;;;7.57;;
5776;SDS011;2914;42.668;23.346;2022-07-23T01:33:00;7.90;;;7.30;;
5776;SDS011;2914;42.668;23.346;2022-07-23T01:35:29;10.77;;;7.77;;
5776;SDS011;2914;42.668;23.346;2022-07-23T01:37:59;8.63;;;7.20;;
5776;SDS011;2914;42.668;23.346;2022-07-23T01:40:28;16.70;;;6.90;;
5776;SDS011;2914;42.668;23.346;2022-07-23T01:42:57;14.30;;;7.33;;
5776;SDS011;2914;42.668;23.346;2022-07-23T01:45:26;11.90;;;8.40;;
5776;SDS011;2914;42.668;23.346;2022-07-23T01:47:55;9.93;;;8.80;;
5776;SDS011;2914;42.668;23.346;2022-07-23T01:50:24;12.30;;;8.37;;
5776;SDS011;2914;42.668;23.346;2022-07-23T01:52:53;11.57;;;9.07;;
5776;SDS011;2914;42.668;23.346;2022-07-23T01:55:22;17.77;;;8.60;;
5776;SDS011;2914;42.668;23.346;2022-07-23T01:57:52;11.27;;;8.10;;
5776;SDS011;2914;42.668;23.346;2022-07-23T02:00:21;18.03;;;8.63;;
5776;SDS011;2914;42.668;23.346;2022-07-23T02:02:50;9.47;;;7.83;;
5776;SDS011;2914;42.668;23.346;2022-07-23T02:05:19;10.30;;;7.80;;
5776;SDS011;2914;42.668;23.346;2022-07-23T02:07:48;8.70;;;7.80;;
5776;SDS011;2914;42.668;23.346;2022-07-23T02:10:18;10.37;;;8.73;;
5776;SDS011;2914;42.668;23.346;2022-07-23T02:12:47;9.80;;;7.10;;
5776;SDS011;2914;42.668;23.346;2022-07-23T02:15:17;16.10;;;8.23;;
5776;SDS011;2914;42.668;23.346;2022-07-23T02:17:46;8.20;;;7.53;;
5776;SDS011;2914;42.668;23.346;2022-07-23T02:20:15;12.03;;;7.63;;
5776;SDS011;2914;42.668;23.346;2022-07-23T02:22:44;12.80;;;8.00;;
5776;SDS011;2914;42.668;23.346;2022-07-23T02:25:14;9.43;;;8.43;;
5776;SDS011;2914;42.668;23.346;2022-07-23T02:27:43;13.27;;;8.50;;
5776;SDS011;2914;42.668;23.346;2022-07-23T02:30:12;10.67;;;8.53;;
5776;SDS011;2914;42.668;23.346;2022-07-23T02:32:41;13.20;;;8.30;;
5776;SDS011;2914;42.668;23.346;2022-07-23T02:35:10;10.90;;;8.17;;
5776;SDS011;2914;42.668;23.346;2022-07-23T02:37:39;10.07;;;8.10;;
5776;SDS011;2914;42.668;23.346;2022-07-23T02:40:11;8.60;;;7.40;;
5776;SDS011;2914;42.668;23.346;2022-07-23T02:42:40;16.23;;;8.33;;
5776;SDS011;2914;42.668;23.346;2022-07-23T02:45:10;8.43;;;7.53;;
5776;SDS011;2914;42.668;23.346;2022-07-23T02:47:39;14.03;;;7.17;;
5776;SDS011;2914;42.668;23.346;2022-07-23T02:50:08;16.10;;;8.77;;
5776;SDS011;2914;42.668;23.346;2022-07-23T02:52:38;10.87;;;8.37;;
5776;SDS011;2914;42.668;23.346;2022-07-23T02:55:09;9.17;;;7.97;;
5776;SDS011;2914;42.668;23.346;2022-07-23T02:57:38;16.67;;;9.20;;
5776;SDS011;2914;42.668;23.346;2022-07-23T03:00:09;10.00;;;8.00;;
5776;SDS011;2914;42.668;23.346;2022-07-23T03:02:39;11.37;;;8.20;;
5776;SDS011;2914;42.668;23.346;2022-07-23T03:05:08;13.43;;;8.10;;
5776;SDS011;2914;42.668;23.346;2022-07-23T03:07:37;12.83;;;7.40;;
5776;SDS011;2914;42.668;23.346;2022-07-23T03:10:07;9.03;;;7.80;;
5776;SDS011;2914;42.668;23.346;2022-07-23T03:12:37;8.70;;;7.80;;
5776;SDS011;2914;42.668;23.346;2022-07-23T03:15:07;9.70;;;8.20;;
5776;SDS011;2914;42.668;23.346;2022-07-23T03:17:37;12.30;;;9.50;;
5776;SDS011;2914;42.668;23.346;2022-07-23T03:20:08;15.30;;;8.33;;
5776;SDS011;2914;42.668;23.346;2022-07-23T03:22:37;10.70;;;7.70;;
5776;SDS011;2914;42.668;23.346;2022-07-23T03:25:08;13.53;;;8.90;;
5776;SDS011;2914;42.668;23.346;2022-07-23T03:27:37;12.03;;;9.10;;
5776;SDS011;2914;42.668;23.346;2022-07-23T03:30:08;16.10;;;9.83;;
5776;SDS011;2914;42.668;23.346;2022-07-23T03:32:38;15.80;;;11.27;;
5776;SDS011;2914;42.668;23.346;2022-07-23T03:35:08;17.43;;;10.93;;
5776;SDS011;2914;42.668;23.346;2022-07-23T03:37:37;14.63;;;11.60;;
5776;SDS011;2914;42.668;23.346;2022-07-23T03:40:08;22.80;;;12.07;;
5776;SDS011;2914;42.668;23.346;2022-07-23T03:42:38;21.13;;;13.77;;
5776;SDS011;2914;42.668;23.346;2022-07-23T03:45:09;18.60;;;11.07;;
5776;SDS011;2914;42.668;23.346;2022-07-23T03:50:14;12.33;;;10.73;;
5776;SDS011;2914;42.668;23.346;2022-07-23T03:52:44;14.90;;;11.20;;
5776;SDS011;2914;42.668;23.346;2022-07-23T03:55:27;15.90;;;10.57;;
5776;SDS011;2914;42.668;23.346;2022-07-23T03:57:56;15.37;;;11.10;;
5776;SDS011;2914;42.668;23.346;2022-07-23T04:00:26;12.97;;;10.37;;
5776;SDS011;2914;42.668;23.346;2022-07-23T04:02:55;12.40;;;10.50;;
5776;SDS011;2914;42.668;23.346;2022-07-23T04:05:24;15.40;;;10.17;;
5776;SDS011;2914;42.668;23.346;2022-07-23T04:07:53;13.17;;;10.33;;
5776;SDS011;2914;42.668;23.346;2022-07-23T04:10:22;12.40;;;10.00;;
5776;SDS011;2914;42.668;23.346;2022-07-23T04:12:51;11.37;;;10.17;;
5776;SDS011;2914;42.668;23.346;2022-07-23T04:15:20;15.30;;;10.90;;
5776;SDS011;2914;42.668;23.346;2022-07-23T04:17:50;13.47;;;10.30;;
5776;SDS011;2914;42.668;23.346;2022-07-23T04:20:19;14.57;;;11.00;;
5776;SDS011;2914;42.668;23.346;2022-07-23T04:22:48;14.10;;;9.97;;
5776;SDS011;2914;42.668;23.346;2022-07-23T04:25:26;14.67;;;11.10;;
5776;SDS011;2914;42.668;23.346;2022-07-23T04:27:55;15.83;;;10.20;;
5776;SDS011;2914;42.668;23.346;2022-07-23T04:30:24;13.50;;;9.33;;
5776;SDS011;2914;42.668;23.346;2022-07-23T04:32:53;19.70;;;10.60;;
5776;SDS011;2914;42.668;23.346;2022-07-23T04:35:22;15.70;;;10.57;;
5776;SDS011;2914;42.668;23.346;2022-07-23T04:37:52;17.40;;;10.40;;
5776;SDS011;2914;42.668;23.346;2022-07-23T04:40:21;13.70;;;10.13;;
5776;SDS011;2914;42.668;23.346;2022-07-23T04:42:50;14.20;;;10.80;;
5776;SDS011;2914;42.668;23.346;2022-07-23T04:45:19;22.83;;;10.50;;
5776;SDS011;2914;42.668;23.346;2022-07-23T04:47:49;20.13;;;10.60;;
5776;SDS011;2914;42.668;23.346;2022-07-23T04:50:19;12.10;;;10.30;;
5776;SDS011;2914;42.668;23.346;2022-07-23T04:52:48;16.33;;;10.77;;
5776;SDS011;2914;42.668;23.346;2022-07-23T04:55:17;11.57;;;10.33;;
5776;SDS011;2914;42.668;23.346;2022-07-23T04:57:47;13.40;;;10.20;;
5776;SDS011;2914;42.668;23.346;2022-07-23T05:00:16;18.70;;;9.67;;
5776;SDS011;2914;42.668;23.346;2022-07-23T05:02:45;11.77;;;10.27;;
5776;SDS011;2914;42.668;23.346;2022-07-23T05:05:14;16.63;;;12.10;;
5776;SDS011;2914;42.668;23.346;2022-07-23T05:07:43;15.23;;;9.97;;
5776;SDS011;2914;42.668;23.346;2022-07-23T05:10:12;16.80;;;9.77;;
5776;SDS011;2914;42.668;23.346;2022-07-23T05:12:42;15.60;;;10.20;;
5776;SDS011;2914;42.668;23.346;2022-07-23T05:15:11;17.13;;;9.27;;
5776;SDS011;2914;42.668;23.346;2022-07-23T05:17:40;15.40;;;11.63;;
5776;SDS011;2914;42.668;23.346;2022-07-23T05:20:09;16.53;;;10.67;;
5776;SDS011;2914;42.668;23.346;2022-07-23T05:22:39;11.10;;;10.00;;
5776;SDS011;2914;42.668;23.346;2022-07-23T05:25:17;12.70;;;10.60;;
5776;SDS011;2914;42.668;23.346;2022-07-23T05:27:46;10.77;;;9.67;;
5776;SDS011;2914;42.668;23.346;2022-07-23T05:30:15;13.10;;;10.93;;
5776;SDS011;2914;42.668;23.346;2022-07-23T05:32:44;12.63;;;9.30;;
5776;SDS011;2914;42.668;23.346;2022-07-23T05:35:13;19.20;;;12.07;;
5776;SDS011;2914;42.668;23.346;2022-07-23T05:37:43;11.43;;;10.33;;
5776;SDS011;2914;42.668;23.346;2022-07-23T05:40:12;16.47;;;11.27;;
5776;SDS011;2914;42.668;23.346;2022-07-23T05:42:42;12.27;;;11.10;;
5776;SDS011;2914;42.668;23.346;2022-07-23T05:45:20;14.77;;;11.57;;
5776;SDS011;2914;42.668;23.346;2022-07-23T05:47:49;13.20;;;10.10;;
5776;SDS011;2914;42.668;23.346;2022-07-23T05:50:18;19.93;;;11.00;;
5776;SDS011;2914;42.668;23.346;2022-07-23T05:52:48;10.43;;;9.33;;
5776;SDS011;2914;42.668;23.346;2022-07-23T05:55:17;12.87;;;9.80;;
5776;SDS011;2914;42.668;23.346;2022-07-23T05:57:46;12.73;;;9.67;;
5776;SDS011;2914;42.668;23.346;2022-07-23T06:00:15;18.67;;;9.50;;
5776;SDS011;2914;42.668;23.346;2022-07-23T06:02:45;19.03;;;10.33;;
5776;SDS011;2914;42.668;23.346;2022-07-23T06:05:14;12.00;;;10.30;;
5776;SDS011;2914;42.668;23.346;2022-07-23T06:07:43;16.80;;;10.00;;
5776;SDS011;2914;42.668;23.346;2022-07-23T06:10:12;12.53;;;10.10;;
5776;SDS011;2914;42.668;23.346;2022-07-23T06:12:42;15.50;;;9.80;;
5776;SDS011;2914;42.668;23.346;2022-07-23T06:15:11;17.23;;;9.23;;
5776;SDS011;2914;42.668;23.346;2022-07-23T06:17:40;19.17;;;10.57;;
5776;SDS011;2914;42.668;23.346;2022-07-23T06:20:09;10.43;;;9.27;;
5776;SDS011;2914;42.668;23.346;2022-07-23T06:22:39;11.70;;;8.80;;
5776;SDS011;2914;42.668;23.346;2022-07-23T06:25:08;14.03;;;10.10;;
5776;SDS011;2914;42.668;23.346;2022-07-23T06:27:38;18.03;;;10.07;;
5776;SDS011;2914;42.668;23.346;2022-07-23T06:30:08;9.93;;;9.00;;
5776;SDS011;2914;42.668;23.346;2022-07-23T06:32:39;11.10;;;9.53;;
5776;SDS011;2914;42.668;23.346;2022-07-23T06:35:08;11.47;;;9.30;;
5776;SDS011;2914;42.668;23.346;2022-07-23T06:37:37;13.33;;;10.53;;
5776;SDS011;2914;42.668;23.346;2022-07-23T06:40:07;13.73;;;8.97;;
5776;SDS011;2914;42.668;23.346;2022-07-23T06:42:38;11.03;;;8.73;;
5776;SDS011;2914;42.668;23.346;2022-07-23T06:45:08;29.73;;;9.90;;
5776;SDS011;2914;42.668;23.346;2022-07-23T06:50:14;27.73;;;10.90;;
5776;SDS011;2914;42.668;23.346;2022-07-23T06:52:43;19.77;;;10.07;;
5776;SDS011;2914;42.668;23.346;2022-07-23T06:55:20;12.20;;;9.27;;
5776;SDS011;2914;42.668;23.346;2022-07-23T06:57:50;28.63;;;9.70;;
5776;SDS011;2914;42.668;23.346;2022-07-23T07:00:19;27.60;;;9.63;;
5776;SDS011;2914;42.668;23.346;2022-07-23T07:02:48;17.10;;;9.20;;
5776;SDS011;2914;42.668;23.346;2022-07-23T07:05:17;10.80;;;9.73;;
5776;SDS011;2914;42.668;23.346;2022-07-23T07:07:46;23.13;;;10.30;;
5776;SDS011;2914;42.668;23.346;2022-07-23T07:10:15;12.57;;;9.20;;
5776;SDS011;2914;42.668;23.346;2022-07-23T07:12:44;12.10;;;9.53;;
5776;SDS011;2914;42.668;23.346;2022-07-23T07:15:14;16.07;;;9.70;;
5776;SDS011;2914;42.668;23.346;2022-07-23T07:17:43;13.40;;;8.87;;
5776;SDS011;2914;42.668;23.346;2022-07-23T07:20:12;18.97;;;9.77;;
5776;SDS011;2914;42.668;23.346;2022-07-23T07:22:41;15.40;;;10.30;;
5776;SDS011;2914;42.668;23.346;2022-07-23T07:25:10;14.87;;;9.53;;
5776;SDS011;2914;42.668;23.346;2022-07-23T07:27:39;10.10;;;9.20;;
5776;SDS011;2914;42.668;23.346;2022-07-23T07:30:10;14.77;;;9.40;;
5776;SDS011;2914;42.668;23.346;2022-07-23T07:32:40;11.77;;;8.67;;
5776;SDS011;2914;42.668;23.346;2022-07-23T07:35:09;17.73;;;9.77;;
5776;SDS011;2914;42.668;23.346;2022-07-23T07:37:38;17.53;;;9.43;;
5776;SDS011;2914;42.668;23.346;2022-07-23T07:40:09;22.20;;;9.67;;
5776;SDS011;2914;42.668;23.346;2022-07-23T07:45:21;14.53;;;8.93;;
5776;SDS011;2914;42.668;23.346;2022-07-23T07:50:27;18.17;;;9.80;;
5776;SDS011;2914;42.668;23.346;2022-07-23T07:52:56;10.47;;;9.03;;
5776;SDS011;2914;42.668;23.346;2022-07-23T07:55:25;12.33;;;8.67;;
5776;SDS011;2914;42.668;23.346;2022-07-23T07:57:54;18.97;;;9.13;;
5776;SDS011;2914;42.668;23.346;2022-07-23T08:00:23;9.60;;;8.50;;
5776;SDS011;2914;42.668;23.346;2022-07-23T08:02:53;14.20;;;8.63;;
5776;SDS011;2914;42.668;23.346;2022-07-23T08:05:23;11.20;;;8.53;;
5776;SDS011;2914;42.668;23.346;2022-07-23T08:07:53;19.40;;;8.90;;
5776;SDS011;2914;42.668;23.346;2022-07-23T08:10:23;11.83;;;9.27;;
5776;SDS011;2914;42.668;23.346;2022-07-23T08:12:54;15.67;;;9.23;;
5776;SDS011;2914;42.668;23.346;2022-07-23T08:15:27;10.70;;;9.27;;
5776;SDS011;2914;42.668;23.346;2022-07-23T08:17:58;16.03;;;9.33;;
5776;SDS011;2914;42.668;23.346;2022-07-23T08:20:27;11.77;;;8.30;;
5776;SDS011;2914;42.668;23.346;2022-07-23T08:22:57;19.33;;;9.00;;
5776;SDS011;2914;42.668;23.346;2022-07-23T08:25:28;14.30;;;9.27;;
5776;SDS011;2914;42.668;23.346;2022-07-23T08:28:00;15.27;;;8.43;;
5776;SDS011;2914;42.668;23.346;2022-07-23T08:30:31;11.33;;;8.97;;
5776;SDS011;2914;42.668;23.346;2022-07-23T08:33:02;13.23;;;9.17;;
5776;SDS011;2914;42.668;23.346;2022-07-23T08:35:34;15.67;;;9.10;;
5776;SDS011;2914;42.668;23.346;2022-07-23T08:38:05;21.87;;;8.73;;
5776;SDS011;2914;42.668;23.346;2022-07-23T08:40:36;11.60;;;8.07;;
5776;SDS011;2914;42.668;23.346;2022-07-23T08:43:08;17.40;;;9.10;;
5776;SDS011;2914;42.668;23.346;2022-07-23T08:45:39;14.37;;;8.87;;
5776;SDS011;2914;42.668;23.346;2022-07-23T08:48:11;12.10;;;8.90;;
5776;SDS011;2914;42.668;23.346;2022-07-23T08:50:56;9.87;;;8.80;;
5776;SDS011;2914;42.668;23.346;2022-07-23T08:53:26;11.43;;;8.90;;
5776;SDS011;2914;42.668;23.346;2022-07-23T08:55:58;13.83;;;8.80;;
5776;SDS011;2914;42.668;23.346;2022-07-23T08:58:28;15.10;;;8.60;;
5776;SDS011;2914;42.668;23.346;2022-07-23T09:00:58;12.33;;;8.90;;
5776;SDS011;2914;42.668;23.346;2022-07-23T09:03:29;24.33;;;9.23;;
5776;SDS011;2914;42.668;23.346;2022-07-23T09:06:00;12.70;;;8.93;;
5776;SDS011;2914;42.668;23.346;2022-07-23T09:08:43;16.37;;;9.03;;
5776;SDS011;2914;42.668;23.346;2022-07-23T09:11:15;16.10;;;8.97;;
5776;SDS011;2914;42.668;23.346;2022-07-23T09:13:46;14.90;;;8.70;;
5776;SDS011;2914;42.668;23.346;2022-07-23T09:16:19;13.10;;;9.43;;
5776;SDS011;2914;42.668;23.346;2022-07-23T09:18:52;17.43;;;8.70;;
5776;SDS011;2914;42.668;23.346;2022-07-23T09:21:23;12.50;;;8.33;;
5776;SDS011;2914;42.668;23.346;2022-07-23T09:23:56;11.30;;;8.60;;
5776;SDS011;2914;42.668;23.346;2022-07-23T09:26:40;16.50;;;9.00;;
5776;SDS011;2914;42.668;23.346;2022-07-23T09:29:13;15.27;;;9.20;;
5776;SDS011;2914;42.668;23.346;2022-07-23T09:31:47;11.07;;;9.57;;
5776;SDS011;2914;42.668;23.346;2022-07-23T09:34:19;22.70;;;9.73;;
5776;SDS011;2914;42.668;23.346;2022-07-23T09:36:49;14.27;;;8.07;;
5776;SDS011;2914;42.668;23.346;2022-07-23T09:39:26;18.23;;;9.03;;
5776;SDS011;2914;42.668;23.346;2022-07-23T09:41:56;15.80;;;9.10;;
5776;SDS011;2914;42.668;23.346;2022-07-23T09:44:27;18.00;;;7.77;;
5776;SDS011;2914;42.668;23.346;2022-07-23T09:47:00;15.87;;;8.93;;
5776;SDS011;2914;42.668;23.346;2022-07-23T09:49:30;11.83;;;8.10;;
5776;SDS011;2914;42.668;23.346;2022-07-23T09:52:00;13.50;;;7.93;;
5776;SDS011;2914;42.668;23.346;2022-07-23T09:54:32;14.20;;;8.63;;
5776;SDS011;2914;42.668;23.346;2022-07-23T09:57:04;19.33;;;8.80;;
5776;SDS011;2914;42.668;23.346;2022-07-23T09:59:37;11.57;;;8.47;;
5776;SDS011;2914;42.668;23.346;2022-07-23T10:02:08;20.20;;;8.87;;
5776;SDS011;2914;42.668;23.346;2022-07-23T10:04:39;13.00;;;8.23;;
5776;SDS011;2914;42.668;23.346;2022-07-23T10:07:08;10.43;;;8.10;;
5776;SDS011;2914;42.668;23.346;2022-07-23T10:09:39;10.37;;;7.90;;
5776;SDS011;2914;42.668;23.346;2022-07-23T10:12:10;9.23;;;8.10;;
5776;SDS011;2914;42.668;23.346;2022-07-23T10:15:00;20.77;;;8.07;;
5776;SDS011;2914;42.668;23.346;2022-07-23T10:17:30;10.37;;;8.20;;
5776;SDS011;2914;42.668;23.346;2022-07-23T10:20:00;14.40;;;7.90;;
5776;SDS011;2914;42.668;23.346;2022-07-23T10:22:30;12.23;;;7.90;;
5776;SDS011;2914;42.668;23.346;2022-07-23T10:25:10;8.13;;;7.00;;
5776;SDS011;2914;42.668;23.346;2022-07-23T10:30:35;10.60;;;6.90;;
5776;SDS011;2914;42.668;23.346;2022-07-23T10:33:17;15.10;;;5.60;;
5776;SDS011;2914;42.668;23.346;2022-07-23T10:35:52;10.77;;;6.33;;
5776;SDS011;2914;42.668;23.346;2022-07-23T10:38:25;11.33;;;7.30;;
5776;SDS011;2914;42.668;23.346;2022-07-23T10:40:57;14.63;;;6.93;;
5776;SDS011;2914;42.668;23.346;2022-07-23T10:43:37;12.30;;;6.90;;
5776;SDS011;2914;42.668;23.346;2022-07-23T10:46:22;17.27;;;7.50;;
5776;SDS011;2914;42.668;23.346;2022-07-23T10:54:51;11.13;;;6.70;;
5776;SDS011;2914;42.668;23.346;2022-07-23T10:57:22;9.20;;;6.43;;
5776;SDS011;2914;42.668;23.346;2022-07-23T11:00:19;11.70;;;6.30;;
5776;SDS011;2914;42.668;23.346;2022-07-23T11:02:52;19.97;;;7.00;;
5776;SDS011;2914;42.668;23.346;2022-07-23T11:05:23;18.40;;;6.80;;
5776;SDS011;2914;42.668;23.346;2022-07-23T11:08:13;13.77;;;6.70;;
5776;SDS011;2914;42.668;23.346;2022-07-23T11:10:45;14.60;;;6.70;;
5776;SDS011;2914;42.668;23.346;2022-07-23T11:13:29;18.37;;;7.07;;
5776;SDS011;2914;42.668;23.346;2022-07-23T11:16:05;17.83;;;6.57;;
5776;SDS011;2914;42.668;23.346;2022-07-23T11:18:57;17.77;;;5.27;;
5776;SDS011;2914;42.668;23.346;2022-07-23T11:21:49;17.43;;;5.27;;
5776;SDS011;2914;42.668;23.346;2022-07-23T11:24:19;25.97;;;6.60;;
5776;SDS011;2914;42.668;23.346;2022-07-23T11:27:01;22.23;;;6.77;;
5776;SDS011;2914;42.668;23.346;2022-07-23T11:32:37;19.13;;;5.80;;
5776;SDS011;2914;42.668;23.346;2022-07-23T11:38:17;12.90;;;5.67;;
5776;SDS011;2914;42.668;23.346;2022-07-23T11:40:49;23.37;;;5.67;;
5776;SDS011;2914;42.668;23.346;2022-07-23T11:43:20;11.23;;;6.00;;
5776;SDS011;2914;42.668;23.346;2022-07-23T11:45:51;16.07;;;5.33;;
5776;SDS011;2914;42.668;23.346;2022-07-23T11:48:22;16.50;;;5.00;;
5776;SDS011;2914;42.668;23.346;2022-07-23T11:50:59;12.93;;;6.10;;
5776;SDS011;2914;42.668;23.346;2022-07-23T11:53:29;15.53;;;5.60;;
5776;SDS011;2914;42.668;23.346;2022-07-23T11:56:08;17.17;;;5.43;;
5776;SDS011;2914;42.668;23.346;2022-07-23T11:58:38;15.93;;;6.50;;
5776;SDS011;2914;42.668;23.346;2022-07-23T12:01:09;17.73;;;6.30;;
5776;SDS011;2914;42.668;23.346;2022-07-23T12:03:48;14.17;;;5.63;;
5776;SDS011;2914;42.668;23.346;2022-07-23T12:06:19;27.30;;;6.67;;
5776;SDS011;2914;42.668;23.346;2022-07-23T12:08:49;35.53;;;6.93;;
5776;SDS011;2914;42.668;23.346;2022-07-23T12:11:18;28.20;;;7.30;;
5776;SDS011;2914;42.668;23.346;2022-07-23T12:13:55;10.10;;;5.73;;
5776;SDS011;2914;42.668;23.346;2022-07-23T12:16:28;20.93;;;6.63;;
5776;SDS011;2914;42.668;23.346;2022-07-23T12:18:57;21.03;;;5.43;;
5776;SDS011;2914;42.668;23.346;2022-07-23T12:21:27;14.67;;;6.00;;
5776;SDS011;2914;42.668;23.346;2022-07-23T12:24:05;17.53;;;6.60;;
5776;SDS011;2914;42.668;23.346;2022-07-23T12:26:35;44.33;;;5.80;;
5776;SDS011;2914;42.668;23.346;2022-07-23T12:29:04;22.73;;;6.20;;
5776;SDS011;2914;42.668;23.346;2022-07-23T12:31:42;14.10;;;5.53;;
5776;SDS011;2914;42.668;23.346;2022-07-23T12:34:14;23.53;;;5.97;;
5776;SDS011;2914;42.668;23.346;2022-07-23T12:36:43;30.73;;;6.30;;
5776;SDS011;2914;42.668;23.346;2022-07-23T12:39:21;22.47;;;6.33;;
5776;SDS011;2914;42.668;23.346;2022-07-23T12:42:11;29.30;;;6.33;;
5776;SDS011;2914;42.668;23.346;2022-07-23T12:44:40;14.23;;;6.70;;
5776;SDS011;2914;42.668;23.346;2022-07-23T12:47:18;15.33;;;6.70;;
5776;SDS011;2914;42.668;23.346;2022-07-23T12:49:47;19.80;;;5.87;;
5776;SDS011;2914;42.668;23.346;2022-07-23T12:52:16;22.57;;;6.60;;
5776;SDS011;2914;42.668;23.346;2022-07-23T12:54:45;17.87;;;6.10;;
5776;SDS011;2914;42.668;23.346;2022-07-23T12:57:14;24.63;;;6.40;;
5776;SDS011;2914;42.668;23.346;2022-07-23T12:59:44;21.83;;;6.00;;
5776;SDS011;2914;42.668;23.346;2022-07-23T13:02:13;22.63;;;6.30;;
5776;SDS011;2914;42.668;23.346;2022-07-23T13:04:43;25.70;;;6.70;;
5776;SDS011;2914;42.668;23.346;2022-07-23T13:07:13;17.20;;;5.57;;
5776;SDS011;2914;42.668;23.346;2022-07-23T13:09:42;18.83;;;5.40;;
5776;SDS011;2914;42.668;23.346;2022-07-23T13:12:11;14.20;;;6.17;;
5776;SDS011;2914;42.668;23.346;2022-07-23T13:14:40;21.37;;;6.30;;
5776;SDS011;2914;42.668;23.346;2022-07-23T13:17:09;35.77;;;5.53;;
5776;SDS011;2914;42.668;23.346;2022-07-23T13:19:38;14.87;;;5.70;;
5776;SDS011;2914;42.668;23.346;2022-07-23T13:22:07;25.67;;;6.20;;
5776;SDS011;2914;42.668;23.346;2022-07-23T13:24:36;18.63;;;6.23;;
5776;SDS011;2914;42.668;23.346;2022-07-23T13:27:14;16.70;;;6.37;;
5776;SDS011;2914;42.668;23.346;2022-07-23T13:29:43;20.90;;;6.27;;
5776;SDS011;2914;42.668;23.346;2022-07-23T13:32:21;21.13;;;7.03;;
5776;SDS011;2914;42.668;23.346;2022-07-23T13:34:51;24.93;;;6.90;;
5776;SDS011;2914;42.668;23.346;2022-07-23T13:37:28;22.53;;;6.27;;
5776;SDS011;2914;42.668;23.346;2022-07-23T13:40:00;21.93;;;7.30;;
5776;SDS011;2914;42.668;23.346;2022-07-23T13:42:38;23.20;;;7.13;;
5776;SDS011;2914;42.668;23.346;2022-07-23T13:45:08;14.97;;;6.03;;
5776;SDS011;2914;42.668;23.346;2022-07-23T13:47:38;24.33;;;6.00;;
5776;SDS011;2914;42.668;23.346;2022-07-23T13:50:08;31.07;;;6.23;;
5776;SDS011;2914;42.668;23.346;2022-07-23T13:52:37;17.87;;;6.20;;
5776;SDS011;2914;42.668;23.346;2022-07-23T13:55:07;23.77;;;7.00;;
5776;SDS011;2914;42.668;23.346;2022-07-23T13:57:36;22.20;;;5.97;;
5776;SDS011;2914;42.668;23.346;2022-07-23T14:00:08;11.47;;;5.90;;
5776;SDS011;2914;42.668;23.346;2022-07-23T14:02:39;21.60;;;5.97;;
5776;SDS011;2914;42.668;23.346;2022-07-23T14:05:09;15.47;;;6.33;;
5776;SDS011;2914;42.668;23.346;2022-07-23T14:07:38;22.50;;;5.80;;
5776;SDS011;2914;42.668;23.346;2022-07-23T14:10:09;13.60;;;6.93;;
5776;SDS011;2914;42.668;23.346;2022-07-23T14:12:38;11.13;;;5.20;;
5776;SDS011;2914;42.668;23.346;2022-07-23T14:15:08;16.40;;;6.50;;
5776;SDS011;2914;42.668;23.346;2022-07-23T14:17:37;14.40;;;6.10;;
5776;SDS011;2914;42.668;23.346;2022-07-23T14:20:09;16.10;;;6.00;;
5776;SDS011;2914;42.668;23.346;2022-07-23T14:22:40;15.73;;;6.20;;
5776;SDS011;2914;42.668;23.346;2022-07-23T14:25:18;16.73;;;6.00;;
5776;SDS011;2914;42.668;23.346;2022-07-23T14:27:47;11.97;;;5.50;;
5776;SDS011;2914;42.668;23.346;2022-07-23T14:30:25;14.70;;;5.40;;
5776;SDS011;2914;42.668;23.346;2022-07-23T14:32:54;19.53;;;6.10;;
5776;SDS011;2914;42.668;23.346;2022-07-23T14:35:32;10.90;;;5.17;;
5776;SDS011;2914;42.668;23.346;2022-07-23T14:38:01;10.37;;;5.63;;
5776;SDS011;2914;42.668;23.346;2022-07-23T14:40:30;18.93;;;6.03;;
5776;SDS011;2914;42.668;23.346;2022-07-23T14:42:59;12.90;;;5.27;;
5776;SDS011;2914;42.668;23.346;2022-07-23T14:45:31;11.00;;;5.50;;
5776;SDS011;2914;42.668;23.346;2022-07-23T14:48:00;16.33;;;6.17;;
5776;SDS011;2914;42.668;23.346;2022-07-23T14:50:29;20.53;;;6.33;;
5776;SDS011;2914;42.668;23.346;2022-07-23T14:52:59;16.13;;;5.60;;
5776;SDS011;2914;42.668;23.346;2022-07-23T14:55:28;22.30;;;6.37;;
5776;SDS011;2914;42.668;23.346;2022-07-23T14:57:58;21.00;;;6.03;;
5776;SDS011;2914;42.668;23.346;2022-07-23T15:00:28;13.73;;;6.40;;
5776;SDS011;2914;42.668;23.346;2022-07-23T15:03:05;14.90;;;6.30;;
5776;SDS011;2914;42.668;23.346;2022-07-23T15:05:34;13.07;;;5.93;;
5776;SDS011;2914;42.668;23.346;2022-07-23T15:08:04;12.80;;;5.77;;
5776;SDS011;2914;42.668;23.346;2022-07-23T15:10:33;16.20;;;5.10;;
5776;SDS011;2914;42.668;23.346;2022-07-23T15:13:02;11.53;;;5.57;;
5776;SDS011;2914;42.668;23.346;2022-07-23T15:15:31;18.77;;;6.20;;
5776;SDS011;2914;42.668;23.346;2022-07-23T15:18:00;13.73;;;6.50;;
5776;SDS011;2914;42.668;23.346;2022-07-23T15:20:29;14.50;;;5.60;;
5776;SDS011;2914;42.668;23.346;2022-07-23T15:22:58;15.00;;;5.73;;
5776;SDS011;2914;42.668;23.346;2022-07-23T15:25:27;11.17;;;6.20;;
5776;SDS011;2914;42.668;23.346;2022-07-23T15:27:57;15.03;;;7.33;;
5776;SDS011;2914;42.668;23.346;2022-07-23T15:30:26;13.07;;;6.70;;
5776;SDS011;2914;42.668;23.346;2022-07-23T15:32:55;9.90;;;7.30;;
5776;SDS011;2914;42.668;23.346;2022-07-23T15:35:24;8.33;;;6.60;;
5776;SDS011;2914;42.668;23.346;2022-07-23T15:37:54;18.03;;;7.47;;
5776;SDS011;2914;42.668;23.346;2022-07-23T15:40:24;18.03;;;6.90;;